CDT,Max TemperatureF,Mean TemperatureF,Min TemperatureF,Max Dew PointF,MeanDew PointF,Min DewpointF,Max Humidity, Mean Humidity, Min Humidity, Max Sea Level PressureIn, Mean Sea Level PressureIn, Min Sea Level PressureIn, Max VisibilityMiles, Mean VisibilityMiles, Min VisibilityMiles, Max Wind SpeedMPH, Mean Wind SpeedMPH, Max Gust SpeedMPH,PrecipitationIn, CloudCover, Events, WindDirDegrees
2013-10-1,84,68,51,61,54,46,82,64,37,29.94,29.87,29.80,10,10,10,17,10,24,0.00,,,151
2013-10-2,84,72,60,66,62,55,88,73,51,29.92,29.87,29.79,10,10,7,25,13,31,0.00,,,156
2013-10-3,93,80,66,64,61,54,88,61,28,29.80,29.70,29.61,10,10,3,24,17,32,0.00,0,,175
2013-10-4,84,65,46,63,51,28,73,53,22,30.08,29.77,29.63,10,10,10,30,20,37,0.00,0,,241
2013-10-5,60,52,44,30,28,25,57,43,29,30.12,30.07,30.01,10,10,10,28,16,38,0.00,3,,304
2013-10-6,71,54,37,32,26,19,65,38,16,30.12,30.05,30.02,10,10,10,23,13,31,0.00,0,,308
2013-10-7,78,56,35,39,33,28,76,45,20,30.19,30.11,30.02,10,10,10,15,8,16,0.00,0,,220
2013-10-8,82,68,53,43,38,34,51,38,21,30.03,29.94,29.85,10,10,9,29,19,38,0.00,0,,173
2013-10-9,82,68,53,48,45,43,72,46,25,29.94,29.90,29.86,10,10,10,29,21,38,0.00,0,,164
2013-10-10,82,70,59,55,52,46,67,53,35,29.94,29.84,29.69,10,10,10,32,19,41,0.00,0,,168
2013-10-11,75,64,53,57,46,36,88,56,24,29.96,29.77,29.66,10,10,9,22,14,29,0.28,1,Thunderstorm,244
2013-10-12,66,54,42,43,37,34,82,54,30,30.27,30.14,29.97,10,10,3,16,8,21,0.00,0,,37
2013-10-13,71,54,37,52,40,30,81,56,32,30.34,30.25,30.16,10,9,2,23,9,28,0.00,2,,118
2013-10-14,64,57,48,61,53,39,94,80,67,30.16,29.95,29.74,10,9,2,26,15,36,0.57,7,Thunderstorm,164
2013-10-15,57,48,39,39,34,32,81,63,44,30.20,30.11,30.00,10,10,7,24,13,31,0.04,0,,321
2013-10-16,51,43,35,36,32,28,81,66,44,30.19,30.12,30.03,10,10,10,12,8,,0.00,3,,293
2013-10-17,64,50,37,36,34,30,87,62,30,30.10,30.02,29.97,10,10,8,16,9,23,0.00,0,,309
2013-10-18,41,36,32,34,30,28,87,78,65,30.21,30.14,30.07,10,8,0,18,8,24,0.44,5,,321
2013-10-19,66,48,30,41,33,25,86,63,30,30.12,30.01,29.90,10,10,10,17,10,24,0.05,0,,249
2013-10-20,66,52,37,41,36,30,75,54,35,30.03,29.87,29.83,10,10,9,17,10,24,0.00,0,,295
2013-10-21,62,47,32,37,34,27,81,60,32,30.16,30.08,30.03,10,10,10,16,9,23,0.00,2,,299
2013-10-22,68,54,41,43,38,34,76,57,35,30.11,30.05,30.00,10,10,10,17,8,25,0.00,2,,308
2013-10-23,69,52,35,43,36,28,87,61,33,30.17,30.10,30.01,10,10,10,17,8,23,0.00,0,,88
2013-10-24,51,42,32,37,32,27,87,67,44,30.41,30.34,30.18,10,10,4,14,7,18,0.00,1,,50
2013-10-25,59,46,32,39,30,25,75,57,31,30.41,30.28,30.11,10,10,10,23,9,28,0.00,1,,172
2013-10-26,62,48,33,43,33,21,82,54,20,30.24,30.16,30.06,10,10,10,23,10,29,0.00,0,,13
2013-10-27,73,53,33,34,28,25,75,45,22,30.18,30.00,29.87,10,10,7,22,9,28,0.00,0,,201
2013-10-28,66,54,42,55,45,28,88,73,43,30.00,29.95,29.89,10,8,2,24,13,30,0.56,4,Thunderstorm,154
2013-10-29,60,53,46,57,51,43,94,86,76,30.01,29.94,29.90,10,7,0,20,12,22,0.22,8,,184
2013-10-30,48,46,44,45,42,39,93,86,76,29.98,29.86,29.77,10,6,1,12,8,,0.01,8,,9
2013-10-31,62,52,42,43,37,30,87,63,32,29.77,29.71,29.67,10,10,8,23,8,33,0.05,3,,309